Time;durP1;ratioP1;P1;durP2;ratioP2;P2;SDS_P1;SDS_P2;PMS_P1;PMS_P2;Temp;Humidity;BMP_temperature;BMP_pressure;BME280_temperature;BME280_humidity;BME280_pressure;Samples;Min_cycle;Max_cycle;Signal;HPM_P1;HPM_P2
2023/06/03 00:02:01;;;;;;;1.67;1.07;;;19.10;99.90;;;19.24;49.23;101574.69;4899785;28;97367;-70
2023/06/03 00:04:30;;;;;;;1.00;0.90;;;19.10;99.90;;;19.22;48.90;101576.56;4900861;28;100673;-70
2023/06/03 00:06:57;;;;;;;1.07;0.77;;;19.10;99.90;;;19.20;49.10;101578.47;4902370;28;97131;-70
2023/06/03 00:09:23;;;;;;;1.50;0.90;;;19.00;99.90;;;19.16;49.49;101579.59;4899889;28;99105;-70
2023/06/03 00:11:49;;;;;;;1.10;0.93;;;19.00;99.90;;;19.16;48.48;101582.28;4908115;28;99856;-69
2023/06/03 00:14:15;;;;;;;2.10;1.13;;;19.00;99.90;;;19.11;47.85;101578.16;4900782;28;99280;-70
2023/06/03 00:16:47;;;;;;;1.97;1.23;;;18.90;99.90;;;19.10;48.74;101577.31;4901952;28;99175;-70
2023/06/03 00:19:14;;;;;;;1.03;0.80;;;18.90;99.90;;;19.10;49.36;101577.31;4911738;28;97707;-69
2023/06/03 00:21:49;;;;;;;3.77;0.60;;;18.90;99.90;;;19.13;49.53;101570.91;4907697;28;97247;-69
2023/06/03 00:24:16;;;;;;;1.77;0.67;;;19.00;99.90;;;19.10;49.32;101574.63;4902944;28;99291;-69
2023/06/03 00:26:42;;;;;;;1.83;0.80;;;19.00;99.90;;;19.09;49.46;101564.84;4900215;28;97426;-70
2023/06/03 00:29:09;;;;;;;0.90;0.80;;;19.00;99.90;;;19.12;49.40;101570.03;4902192;28;98333;-70
2023/06/03 00:31:35;;;;;;;2.20;1.00;;;19.00;99.90;;;19.10;49.33;101574.63;4903344;28;100029;-70
2023/06/03 00:34:01;;;;;;;1.43;0.90;;;19.00;99.90;;;19.10;49.77;101573.75;4899943;28;97228;-70
2023/06/03 00:36:27;;;;;;;2.00;0.90;;;19.00;99.90;;;19.08;48.14;101572.97;4902348;28;98170;-70
2023/06/03 00:38:53;;;;;;;1.53;0.80;;;18.90;99.90;;;19.07;49.66;101566.75;4895686;28;99857;-70
2023/06/03 00:41:19;;;;;;;2.03;0.80;;;18.90;99.90;;;19.10;49.56;101568.41;4898258;28;99476;-70
2023/06/03 00:43:45;;;;;;;1.70;1.13;;;19.00;99.90;;;19.10;48.34;101558.56;4894584;28;97385;-70
2023/06/03 00:46:12;;;;;;;1.47;1.07;;;19.00;99.90;;;19.12;49.10;101562.03;4900562;28;98832;-69
2023/06/03 00:48:38;;;;;;;2.87;0.80;;;19.00;99.90;;;19.13;49.43;101555.72;4895917;28;99151;-70
2023/06/03 00:51:08;;;;;;;1.27;0.77;;;19.00;99.90;;;19.17;49.36;101553.72;4895334;28;99071;-70
2023/06/03 00:53:34;;;;;;;3.27;1.10;;;19.00;99.90;;;19.13;48.87;101566.41;4897058;28;99221;-69
2023/06/03 00:56:00;;;;;;;1.33;0.70;;;19.00;99.90;;;19.15;49.47;101559.16;4896177;28;99568;-70
2023/06/03 00:58:27;;;;;;;1.13;0.77;;;19.00;99.90;;;19.16;49.05;101562.69;4901562;28;97415;-70
2023/06/03 01:00:52;;;;;;;0.90;0.63;;;19.00;99.90;;;19.17;49.27;101567.09;4899207;28;98517;-70
2023/06/03 01:03:19;;;;;;;0.83;0.70;;;19.00;99.90;;;19.16;49.52;101563.56;4897137;28;97337;-70
2023/06/03 01:06:14;;;;;;;0.93;0.60;;;19.00;99.90;;;19.17;49.41;101557.25;4899023;28;97591;-69
2023/06/03 01:09:02;;;;;;;2.33;0.70;;;19.00;99.90;;;19.18;49.50;101558.97;4896115;28;99006;-70
2023/06/03 01:12:00;;;;;;;0.90;0.90;;;19.10;99.90;;;19.18;49.59;101556.31;4897365;28;96960;-70
2023/06/03 01:14:36;;;;;;;0.97;0.80;;;19.10;99.90;;;19.20;49.44;101549.06;4874963;28;97469;-69
2023/06/03 01:17:09;;;;;;;1.23;0.97;;;19.10;99.90;;;19.16;49.48;101552.88;4895861;28;99445;-69
2023/06/03 01:19:48;;;;;;;1.13;1.03;;;19.00;99.90;;;19.14;49.28;101545.88;4908664;28;97474;-70
2023/06/03 01:22:20;;;;;;;1.77;0.70;;;19.00;99.90;;;19.14;49.56;101552.09;4902081;28;97268;-70
2023/06/03 01:24:50;;;;;;;1.37;0.93;;;19.00;99.90;;;19.16;49.05;101555.53;4894455;28;97582;-70
2023/06/03 01:27:20;;;;;;;3.70;1.03;;;19.10;99.90;;;19.13;49.03;101555.72;4897898;28;98823;-70
2023/06/03 01:29:47;;;;;;;2.33;1.20;;;19.00;99.90;;;19.12;47.80;101548.66;4897020;28;101011;-70
2023/06/03 01:32:17;;;;;;;1.00;0.77;;;19.00;99.90;;;19.15;49.48;101548.47;4898460;28;98867;-70
2023/06/03 01:34:44;;;;;;;0.97;0.80;;;19.00;99.90;;;19.14;49.57;101557.44;4893823;28;98652;-70
2023/06/03 01:37:10;;;;;;;0.90;0.77;;;19.10;99.90;;;19.19;49.38;101546.47;4894756;28;97391;-70
2023/06/03 01:39:39;;;;;;;1.03;0.83;;;19.10;99.90;;;19.19;49.34;101541.97;4902937;28;97259;-70
2023/06/03 01:42:07;;;;;;;0.80;0.80;;;19.10;99.90;;;19.22;49.42;101555.19;4902697;28;97679;-70
2023/06/03 01:44:33;;;;;;;2.27;0.97;;;19.20;99.90;;;19.22;49.25;101548.97;4896145;28;97228;-69
2023/06/03 01:46:59;;;;;;;0.70;0.70;;;19.20;99.90;;;19.20;49.11;101546.38;4891880;28;97300;-69
2023/06/03 01:49:26;;;;;;;0.67;0.60;;;19.10;99.90;;;19.23;49.25;101551.53;4893717;28;96973;-70
2023/06/03 01:51:52;;;;;;;2.03;0.83;;;19.20;99.90;;;19.20;48.04;101553.53;4933284;28;97554;-70
2023/06/03 01:54:19;;;;;;;1.07;0.60;;;19.10;99.90;;;19.20;49.34;101551.72;4922427;28;97629;-70
2023/06/03 01:56:45;;;;;;;1.40;1.17;;;19.10;99.90;;;19.20;49.47;101551.72;4923693;28;97072;-70
2023/06/03 01:59:14;;;;;;;2.07;1.00;;;19.10;99.90;;;19.17;49.32;101546.56;4929842;28;97843;-70
2023/06/03 02:01:43;;;;;;;3.00;0.90;;;19.00;99.90;;;19.13;49.33;101549.50;4920353;28;102876;-70
2023/06/03 02:04:11;;;;;;;1.37;0.97;;;19.10;99.90;;;19.13;48.89;101553.06;4918933;28;97101;-70
2023/06/03 02:06:37;;;;;;;1.20;0.97;;;19.00;99.90;;;19.11;48.72;101551.41;4920426;28;97139;-70
2023/06/03 02:09:04;;;;;;;0.90;0.73;;;19.00;99.90;;;19.10;46.29;101550.56;4923034;28;97027;-70
2023/06/03 02:11:30;;;;;;;1.70;0.83;;;19.00;99.90;;;19.06;49.65;101546.31;4933414;28;97098;-70
2023/06/03 02:13:57;;;;;;;0.97;0.70;;;19.00;99.90;;;19.08;49.60;101539.06;4926236;28;97205;-70
2023/06/03 02:16:23;;;;;;;1.30;1.00;;;19.10;99.90;;;19.14;49.35;101543.22;4923420;28;97310;-70
2023/06/03 02:18:49;;;;;;;0.60;0.60;;;19.10;99.90;;;19.16;49.59;101542.16;4925551;28;99323;-70
2023/06/03 02:21:16;;;;;;;1.30;0.80;;;19.20;99.90;;;19.18;49.09;101537.59;4926068;28;97212;-70
2023/06/03 02:23:42;;;;;;;2.77;0.87;;;19.20;99.90;;;19.18;49.33;101540.25;4924384;28;97185;-69
2023/06/03 02:26:08;;;;;;;0.83;0.67;;;19.20;99.90;;;19.20;49.34;101541.03;4932834;28;112113;-70
2023/06/03 02:28:34;;;;;;;1.00;0.90;;;19.30;99.90;;;19.21;49.48;101534.72;4923042;28;100508;-70
2023/06/03 02:30:59;;;;;;;2.93;0.77;;;19.30;99.90;;;19.24;49.25;101544.38;4922359;28;97643;-70
2023/06/03 02:33:25;;;;;;;1.70;0.90;;;19.30;99.90;;;19.27;46.64;101547.78;4923326;28;96964;-70
2023/06/03 02:35:51;;;;;;;1.30;0.80;;;19.30;99.90;;;19.26;49.03;101540.69;4927971;28;104115;-69
2023/06/03 02:38:17;;;;;;;1.20;0.80;;;19.30;99.90;;;19.28;49.20;101543.28;4920072;28;97485;-70
2023/06/03 02:40:43;;;;;;;1.27;1.10;;;19.30;99.90;;;19.27;49.13;101542.41;4909112;28;102725;-70
2023/06/03 02:43:10;;;;;;;1.87;0.90;;;19.30;99.90;;;19.25;49.06;101544.31;4936099;28;97314;-69
2023/06/03 02:45:36;;;;;;;1.30;0.80;;;19.30;99.90;;;19.24;49.32;101547.94;4924396;28;97436;-70
2023/06/03 02:48:02;;;;;;;1.10;0.87;;;19.30;99.90;;;19.24;47.65;101547.94;4928700;28;97332;-70
2023/06/03 02:50:27;;;;;;;1.83;0.93;;;19.30;99.90;;;19.22;48.96;101544.47;4930082;28;97324;-70
2023/06/03 02:52:54;;;;;;;3.83;1.10;;;19.30;99.90;;;19.26;48.82;101551.41;4931694;28;111922;-70
2023/06/03 02:55:23;;;;;;;1.33;0.97;;;19.30;99.90;;;19.23;49.00;101546.19;4924295;28;97225;-70
2023/06/03 02:57:49;;;;;;;0.90;0.80;;;19.30;99.90;;;19.27;48.90;101552.25;4925224;28;96778;-69
2023/06/03 03:00:15;;;;;;;1.03;0.60;;;19.40;99.90;;;19.28;48.78;101556.66;4926818;28;100107;-70
2023/06/03 03:02:42;;;;;;;1.33;0.80;;;19.40;99.90;;;19.28;48.67;101557.50;4932531;28;97134;-69
2023/06/03 03:05:08;;;;;;;1.90;1.00;;;19.40;99.90;;;19.24;49.07;101550.63;4932960;28;97104;-70
2023/06/03 03:07:36;;;;;;;2.07;1.23;;;19.40;99.90;;;19.25;47.96;101555.03;4927604;28;97143;-70
2023/06/03 03:10:04;;;;;;;1.20;0.80;;;19.40;99.90;;;19.24;48.92;101560.44;4933593;28;97642;-70
2023/06/03 03:12:30;;;;;;;1.50;0.80;;;19.30;99.90;;;19.24;48.73;101566.69;4929165;28;97427;-70
2023/06/03 03:14:56;;;;;;;1.03;0.80;;;19.40;99.90;;;19.14;49.14;101568.16;4925192;28;97412;-70
2023/06/03 03:17:22;;;;;;;2.33;1.13;;;19.30;99.90;;;19.16;47.70;101560.88;4929279;28;97006;-69
2023/06/03 03:19:48;;;;;;;2.87;1.10;;;19.30;99.90;;;19.20;48.89;101559.75;4911563;28;98889;-70
2023/06/03 03:22:14;;;;;;;1.63;0.97;;;19.30;99.90;;;19.15;48.81;101558.31;4918991;28;97309;-70
2023/06/03 03:24:40;;;;;;;1.83;1.07;;;19.30;99.90;;;19.19;48.74;101554.50;4922088;28;97468;-70
2023/06/03 03:27:07;;;;;;;2.10;0.67;;;19.30;99.90;;;19.11;48.54;101562.97;4927686;28;115294;-70
2023/06/03 03:29:33;;;;;;;2.10;0.87;;;19.30;99.90;;;19.19;48.57;101558.03;4924474;28;97421;-69
2023/06/03 03:32:07;;;;;;;1.40;0.90;;;19.30;99.90;;;19.18;48.61;101567.00;4927111;28;97022;-70
2023/06/03 03:34:36;;;;;;;1.13;1.00;;;19.30;99.90;;;19.18;48.50;101556.31;4936178;28;97212;-69
2023/06/03 03:37:03;;;;;;;1.20;1.00;;;19.30;99.90;;;19.15;48.33;101567.19;4924996;28;100235;-70
2023/06/03 03:39:29;;;;;;;2.63;0.73;;;19.30;99.90;;;19.15;48.43;101561.84;4925779;28;97465;-70
2023/06/03 03:41:55;;;;;;;1.13;0.80;;;19.30;99.90;;;19.18;48.10;101561.66;4933607;28;97107;-70
2023/06/03 03:44:23;;;;;;;1.13;0.90;;;19.30;99.90;;;19.19;48.11;101560.72;4922529;28;97356;-70
2023/06/03 03:47:03;;;;;;;1.43;0.93;;;19.30;99.90;;;19.20;48.12;101562.44;4930827;28;98373;-70
2023/06/03 03:49:31;;;;;;;1.03;0.73;;;19.30;99.90;;;19.16;48.02;101571.59;4923709;28;97646;-70
2023/06/03 03:52:04;;;;;;;1.20;0.77;;;19.30;99.90;;;19.16;48.05;101555.53;4911826;28;97867;-70
2023/06/03 03:54:30;;;;;;;2.03;0.80;;;19.30;99.90;;;19.15;48.15;101560.97;4908868;28;97421;-70
2023/06/03 03:56:56;;;;;;;1.10;0.90;;;19.40;99.90;;;19.16;47.94;101576.06;4922524;28;97868;-70
2023/06/03 03:59:26;;;;;;;0.60;0.60;;;19.30;99.90;;;19.18;48.02;101569.69;4928239;28;97760;-69
2023/06/03 04:01:53;;;;;;;2.70;0.80;;;19.30;99.90;;;19.13;47.90;101577.13;4930120;28;97706;-70
2023/06/03 04:04:44;;;;;;;1.30;0.90;;;19.30;99.90;;;19.18;47.72;101569.69;4926065;28;97102;-70
2023/06/03 04:07:16;;;;;;;2.03;0.93;;;19.30;99.90;;;19.07;48.25;101564.06;4919706;28;97360;-70
2023/06/03 04:09:42;;;;;;;1.37;0.87;;;19.30;99.90;;;19.08;47.57;101568.47;4935187;28;97533;-70
2023/06/03 04:12:32;;;;;;;2.07;0.80;;;19.30;99.90;;;19.03;47.43;101574.09;4915482;28;97663;-70
2023/06/03 04:14:58;;;;;;;1.70;0.83;;;19.30;99.90;;;19.07;47.48;101572.09;4928717;28;97566;-70
2023/06/03 04:17:26;;;;;;;1.23;0.80;;;19.30;99.90;;;19.05;47.47;101574.00;4926821;28;97032;-70
2023/06/03 04:19:53;;;;;;;0.60;0.50;;;19.30;99.90;;;19.13;47.26;101571.78;4920451;28;97551;-70
2023/06/03 04:22:21;;;;;;;1.97;0.83;;;19.30;99.90;;;19.09;47.24;101570.19;4928341;28;98187;-70
2023/06/03 04:25:01;;;;;;;1.20;0.50;;;19.30;99.90;;;19.07;47.13;101577.44;4923547;28;97060;-70
2023/06/03 04:27:31;;;;;;;1.50;0.90;;;19.30;99.90;;;19.10;46.73;101573.75;4922223;28;97355;-70
2023/06/03 04:29:57;;;;;;;1.27;0.70;;;19.30;99.90;;;19.10;46.83;101571.94;4934954;28;97478;-70
2023/06/03 04:32:23;;;;;;;1.87;0.80;;;19.30;99.90;;;19.10;47.14;101573.75;4928491;28;98229;-70
2023/06/03 04:34:52;;;;;;;1.17;0.70;;;19.30;99.90;;;19.10;46.75;101577.31;4932621;28;97024;-70
2023/06/03 04:37:19;;;;;;;1.53;0.60;;;19.30;99.90;;;19.16;47.06;101571.59;4921173;28;98878;-70
2023/06/03 04:39:45;;;;;;;1.10;0.70;;;19.30;99.90;;;19.06;47.10;101566.84;4909356;28;98327;-70
2023/06/03 04:42:12;;;;;;;0.73;0.70;;;19.30;99.90;;;19.10;46.53;101566.59;4928221;28;98156;-70
2023/06/03 04:44:39;;;;;;;1.33;0.60;;;19.30;99.90;;;19.13;46.82;101568.22;4924553;28;97351;-70
2023/06/03 04:47:12;;;;;;;1.23;0.63;;;19.30;99.90;;;19.14;46.64;101561.94;4926618;28;97202;-70
2023/06/03 04:49:41;;;;;;;0.90;0.60;;;19.30;99.90;;;19.06;46.87;101569.50;4929886;28;96553;-70
2023/06/03 04:52:09;;;;;;;1.30;0.60;;;19.30;99.90;;;19.05;46.33;101565.97;4927925;28;98750;-70
2023/06/03 04:54:36;;;;;;;1.77;0.60;;;19.20;99.90;;;19.07;46.51;101566.75;4918160;28;97118;-70
2023/06/03 04:57:02;;;;;;;0.87;0.67;;;19.30;99.90;;;19.06;46.25;101570.38;4924723;28;98059;-70
2023/06/03 04:59:29;;;;;;;0.60;0.60;;;19.30;99.90;;;19.11;46.04;101568.31;4921352;28;98264;-70
2023/06/03 05:01:55;;;;;;;2.70;0.80;;;19.30;99.90;;;19.07;46.45;101566.75;4922220;28;96996;-70
2023/06/03 05:04:22;;;;;;;0.90;0.57;;;19.30;99.90;;;19.09;46.23;101564.84;4924223;28;97183;-70
2023/06/03 05:06:48;;;;;;;1.20;0.60;;;19.30;99.90;;;19.09;45.80;101570.19;4929217;28;97601;-70
2023/06/03 05:09:15;;;;;;;2.03;0.73;;;19.30;99.90;;;19.06;46.04;101562.34;4920970;28;97048;-70
2023/06/03 05:11:43;;;;;;;0.97;0.50;;;19.30;99.90;;;19.13;45.64;101566.41;4924505;28;97179;-69
2023/06/03 05:14:09;;;;;;;1.43;0.73;;;19.30;99.70;;;19.11;46.01;101572.81;4919230;28;97029;-70
2023/06/03 05:16:37;;;;;;;0.77;0.33;;;19.30;99.90;;;19.05;45.98;101567.78;4927560;28;100264;-69
2023/06/03 05:19:02;;;;;;;0.80;0.63;;;19.30;99.90;;;19.09;45.31;101575.53;4920853;28;96883;-70
2023/06/03 05:21:28;;;;;;;0.90;0.43;;;19.30;99.90;;;19.00;45.89;101560.91;4909092;28;98945;-70
2023/06/03 05:23:56;;;;;;;1.60;0.80;;;19.20;99.90;;;19.06;45.53;101565.03;4926537;28;98336;-70
2023/06/03 05:26:22;;;;;;;2.10;0.60;;;19.30;99.90;;;19.10;44.53;101558.56;4926544;28;97294;-70
2023/06/03 05:28:50;;;;;;;1.93;0.43;;;19.30;98.40;;;19.05;45.77;101557.97;4913562;28;99052;-70
2023/06/03 05:31:15;;;;;;;1.17;0.67;;;19.20;99.90;;;19.09;45.59;101559.50;4921059;28;96755;-70
2023/06/03 05:33:41;;;;;;;1.90;0.57;;;19.30;99.90;;;19.11;45.53;101562.13;4916663;28;97351;-70
2023/06/03 05:36:08;;;;;;;3.30;0.50;;;19.30;99.90;;;19.06;45.53;101564.16;4923254;28;97470;-70
2023/06/03 05:38:34;;;;;;;1.33;0.47;;;19.30;99.90;;;19.01;45.33;101561.75;4920262;28;99691;-70
2023/06/03 05:41:02;;;;;;;0.53;0.53;;;19.20;99.90;;;19.05;45.36;101567.78;4913911;28;97049;-70
2023/06/03 05:43:37;;;;;;;0.70;0.40;;;19.30;99.80;;;19.00;45.54;101565.38;4923679;28;97345;-72
2023/06/03 05:46:03;;;;;;;0.37;0.37;;;19.20;99.70;;;18.99;45.03;101574.34;4921588;28;97273;-70
2023/06/03 05:48:29;;;;;;;1.07;0.50;;;19.20;99.50;;;19.12;45.12;101570.03;4923246;28;97105;-70
2023/06/03 05:50:55;;;;;;;1.77;0.80;;;19.30;99.60;;;19.11;45.38;101573.66;4922237;28;97337;-70
2023/06/03 05:53:24;;;;;;;0.87;0.53;;;19.30;99.70;;;19.01;45.02;101572.47;4924124;28;97465;-70
2023/06/03 05:55:53;;;;;;;1.60;0.67;;;19.20;99.60;;;19.00;45.20;101576.09;4918691;28;97930;-70
2023/06/03 05:58:20;;;;;;;0.93;0.50;;;19.20;99.50;;;19.01;44.76;101567.13;4918786;28;98175;-70
2023/06/03 06:00:46;;;;;;;0.47;0.40;;;19.20;99.40;;;19.01;44.78;101561.75;4921469;28;97636;-70
2023/06/03 06:03:16;;;;;;;0.50;0.40;;;19.20;99.30;;;19.10;44.82;101563.94;4924881;28;97077;-72
2023/06/03 06:05:42;;;;;;;1.37;0.40;;;19.30;99.30;;;19.12;45.12;101564.69;4924324;28;96890;-70
2023/06/03 06:08:08;;;;;;;1.10;0.27;;;19.30;99.50;;;19.14;44.45;101568.16;4921247;28;97498;-70
2023/06/03 06:10:34;;;;;;;0.80;0.53;;;19.30;98.70;;;19.19;44.90;101566.06;4928675;28;96963;-69
2023/06/03 06:13:00;;;;;;;0.57;0.40;;;19.30;99.30;;;19.21;45.05;101569.50;4923318;28;96993;-70
2023/06/03 06:15:30;;;;;;;1.37;0.50;;;19.40;99.50;;;19.16;44.67;101560.88;4916678;28;106336;-70
2023/06/03 06:17:56;;;;;;;2.13;0.40;;;19.30;99.30;;;19.17;44.89;101557.25;4924462;28;97195;-70
2023/06/03 06:20:22;;;;;;;0.30;0.30;;;19.40;99.30;;;19.22;45.01;101560.53;4931548;28;99580;-70
2023/06/03 06:22:48;;;;;;;0.90;0.40;;;19.40;99.40;;;19.26;44.97;101556.75;4920751;28;97041;-70
2023/06/03 06:25:15;;;;;;;0.70;0.30;;;19.40;99.50;;;19.23;44.78;101561.38;4926090;28;97058;-70
2023/06/03 06:27:41;;;;;;;1.30;0.47;;;19.40;99.50;;;19.23;45.15;101569.41;4921362;28;97541;-70
2023/06/03 06:30:08;;;;;;;1.00;0.40;;;19.40;99.30;;;19.15;45.72;101572.53;4927560;28;97085;-70
2023/06/03 06:32:49;;;;;;;1.20;0.47;;;19.40;99.80;;;19.21;44.96;101572.19;4930271;28;97478;-69
2023/06/03 06:35:17;;;;;;;0.70;0.47;;;19.40;99.40;;;19.07;45.53;101572.09;4918960;28;97473;-70
2023/06/03 06:37:43;;;;;;;2.13;0.40;;;19.30;99.70;;;19.05;45.30;101576.69;4920884;28;97806;-70
2023/06/03 06:40:18;;;;;;;1.47;0.50;;;19.30;99.60;;;18.99;45.02;101574.34;4926383;28;97124;-70
2023/06/03 06:42:43;;;;;;;1.70;0.30;;;19.20;99.40;;;19.04;44.68;101569.59;4917781;28;97168;-70
2023/06/03 06:45:25;;;;;;;2.27;0.40;;;19.30;99.10;;;19.04;44.73;101572.28;4924673;28;120495;-70
2023/06/03 06:48:05;;;;;;;0.47;0.40;;;19.30;99.20;;;19.02;44.77;101575.03;4923731;28;97442;-69
2023/06/03 06:50:46;;;;;;;0.83;0.40;;;19.20;99.30;;;19.06;44.70;101573.06;4932012;28;96770;-70
2023/06/03 06:53:14;;;;;;;1.53;0.40;;;19.30;99.00;;;18.99;45.48;101579.72;4920560;28;97271;-70
2023/06/03 06:55:55;;;;;;;0.77;0.40;;;19.20;99.80;;;18.88;45.65;101571.41;4910167;28;97545;-70
2023/06/03 06:58:25;;;;;;;2.33;0.40;;;19.10;99.80;;;19.05;42.56;101575.81;4909064;28;99960;-70
2023/06/03 07:00:52;;;;;;;0.93;0.27;;;19.20;97.60;;;19.04;45.37;101582.97;4925559;28;96901;-70
2023/06/03 07:03:20;;;;;;;0.30;0.30;;;19.20;99.70;;;19.07;45.53;101582.78;4927860;28;107091;-70
2023/06/03 07:05:52;;;;;;;0.40;0.40;;;19.30;99.60;;;19.05;45.88;101584.69;4934064;28;97391;-70
2023/06/03 07:08:18;;;;;;;0.30;0.30;;;19.30;99.90;;;19.15;44.78;101583.25;4928214;28;96704;-70
2023/06/03 07:10:44;;;;;;;2.03;0.60;;;19.30;99.20;;;19.13;45.36;101577.13;4914632;28;97493;-70
2023/06/03 07:13:13;;;;;;;0.50;0.33;;;19.30;99.70;;;19.14;45.50;101576.16;4924877;28;97593;-70
2023/06/03 07:15:39;;;;;;;0.80;0.40;;;19.30;99.50;;;19.17;45.07;101567.97;4926199;28;98464;-70
2023/06/03 07:18:12;;;;;;;1.13;0.50;;;19.40;99.30;;;19.07;46.34;101580.13;4925412;28;97275;-70
2023/06/03 07:20:45;;;;;;;0.20;0.20;;;19.30;99.90;;;19.08;46.06;101573.81;4941275;28;97124;-68
2023/06/03 07:23:26;;;;;;;0.20;0.20;;;19.30;99.80;;;18.93;45.87;101574.69;4937804;28;97264;-70
2023/06/03 07:25:54;;;;;;;0.47;0.30;;;19.20;99.60;;;18.95;45.23;101564.75;4929237;28;97231;-71
2023/06/03 07:28:34;;;;;;;0.50;0.40;;;19.20;99.30;;;18.94;45.42;101571.91;4912131;28;97009;-71
2023/06/03 07:31:06;;;;;;;1.53;0.60;;;19.20;99.50;;;18.98;45.00;101577.97;4922752;28;97240;-71
2023/06/03 07:33:55;;;;;;;0.30;0.20;;;19.20;99.20;;;19.03;44.58;101573.22;4923925;28;97045;-71
2023/06/03 07:36:24;;;;;;;1.30;0.40;;;19.20;99.20;;;18.92;46.03;101573.81;4925608;28;97660;-71
2023/06/03 07:39:06;;;;;;;1.13;0.30;;;19.20;99.80;;;18.91;45.40;101571.25;4929080;28;100786;-71
2023/06/03 07:41:50;;;;;;;0.60;0.30;;;19.10;99.30;;;18.93;45.44;101558.66;4923929;28;96911;-71
2023/06/03 07:44:29;;;;;;;1.23;0.40;;;19.20;99.20;;;18.99;45.48;101567.19;4933092;28;97205;-71
2023/06/03 07:46:59;;;;;;;0.83;0.50;;;19.20;99.90;;;19.02;45.35;101571.50;4922010;28;97214;-71
2023/06/03 07:49:25;;;;;;;2.93;0.37;;;19.20;99.30;;;18.94;45.32;101566.56;4929738;28;101117;-71
2023/06/03 07:51:52;;;;;;;0.93;0.30;;;19.20;99.40;;;18.83;45.33;101562.81;4923577;28;97182;-71
2023/06/03 07:54:18;;;;;;;0.53;0.33;;;19.10;99.30;;;18.83;45.95;101562.81;4923339;28;96852;-71
2023/06/03 07:56:47;;;;;;;1.13;0.40;;;19.10;99.40;;;18.85;45.35;101550.22;4936517;28;97811;-71
2023/06/03 07:59:15;;;;;;;0.43;0.30;;;19.10;99.30;;;18.84;44.42;101559.19;4919667;28;98972;-72
2023/06/03 08:01:42;;;;;;;1.17;0.40;;;19.10;98.60;;;18.74;45.91;101561.50;4931509;28;98202;-72
2023/06/03 08:04:28;;;;;;;0.83;0.30;;;19.00;99.60;;;18.67;44.71;101557.44;4924763;28;98061;-72
2023/06/03 08:06:56;;;;;;;0.63;0.47;;;18.90;99.10;;;18.62;44.90;101564.81;4921528;28;97861;-71
2023/06/03 08:09:31;;;;;;;0.83;0.40;;;18.90;98.80;;;18.64;45.52;101566.47;4927624;28;98137;-71
2023/06/03 08:11:58;;;;;;;0.77;0.40;;;18.90;99.40;;;18.76;44.57;101561.41;4924788;28;97741;-71
2023/06/03 08:14:28;;;;;;;1.20;0.63;;;19.00;98.80;;;18.70;45.67;101563.47;4923755;28;97176;-72
2023/06/03 08:16:56;;;;;;;1.07;0.77;;;19.00;99.40;;;18.78;44.88;101556.84;4925391;28;97365;-70
2023/06/03 08:19:22;;;;;;;0.40;0.20;;;19.00;98.90;;;18.72;44.07;101566.94;4920352;28;97968;-71
2023/06/03 08:21:50;;;;;;;1.13;0.50;;;19.00;98.50;;;18.84;45.50;101556.50;4925241;28;97572;-70
2023/06/03 08:24:16;;;;;;;0.90;0.70;;;19.10;99.30;;;18.77;44.98;101560.47;4927339;28;96836;-70
2023/06/03 08:26:45;;;;;;;0.20;0.20;;;19.00;99.10;;;18.78;45.25;101556.84;4921890;28;98333;-70
2023/06/03 08:29:12;;;;;;;1.27;0.60;;;19.00;99.10;;;18.88;44.50;101558.91;4930888;28;97126;-70
2023/06/03 08:31:37;;;;;;;1.13;0.60;;;19.10;98.90;;;18.76;45.15;101550.72;4926317;28;97594;-70
2023/06/03 08:34:03;;;;;;;0.83;0.63;;;19.00;99.00;;;18.70;44.52;101557.28;4928804;28;97332;-70
2023/06/03 08:36:32;;;;;;;0.37;0.37;;;19.00;98.70;;;18.70;46.02;101552.78;4932412;28;113425;-70
2023/06/03 08:38:58;;;;;;;1.17;0.80;;;19.00;99.50;;;18.64;45.03;101553.13;4924227;28;97095;-70
2023/06/03 08:41:40;;;;;;;1.63;0.40;;;18.90;99.10;;;18.68;45.85;101553.81;4926026;28;96922;-70
2023/06/03 08:44:44;;;;;;;0.43;0.30;;;19.00;99.40;;;18.66;44.69;101551.25;4925644;28;96560;-70
2023/06/03 08:47:17;;;;;;;1.00;0.50;;;18.90;98.70;;;18.63;44.25;101551.38;4925573;28;96901;-70
2023/06/03 08:50:06;;;;;;;2.10;0.83;;;18.90;98.00;;;18.73;45.21;101552.63;4927718;28;97576;-70
2023/06/03 08:52:37;;;;;;;0.90;0.50;;;19.00;98.70;;;18.80;44.70;101544.25;4924437;28;97425;-70
2023/06/03 08:55:06;;;;;;;2.13;0.90;;;19.00;98.90;;;18.80;44.99;101541.56;4924088;28;97761;-70
2023/06/03 08:58:16;;;;;;;1.30;0.67;;;19.10;98.70;;;18.86;44.28;101546.59;4929236;28;98170;-70
2023/06/03 09:00:44;;;;;;;2.10;0.60;;;19.10;99.10;;;18.70;43.70;101542.09;4929027;28;97353;-70
2023/06/03 09:03:11;;;;;;;2.57;0.60;;;19.00;98.10;;;18.82;44.80;101540.56;4927155;28;96976;-70
2023/06/03 09:05:38;;;;;;;2.60;0.50;;;19.10;98.90;;;18.86;44.80;101538.56;4930123;28;97166;-70
2023/06/03 09:08:05;;;;;;;2.87;0.63;;;19.10;98.90;;;18.92;45.24;101541.75;4931523;28;98061;-70
2023/06/03 09:10:32;;;;;;;2.47;0.40;;;19.20;99.10;;;18.84;44.84;101548.50;4924286;28;97122;-70
2023/06/03 09:12:59;;;;;;;1.90;0.70;;;19.10;98.80;;;18.79;44.98;101545.19;4922551;28;98818;-70
2023/06/03 09:15:27;;;;;;;1.00;0.70;;;19.10;99.20;;;18.78;44.82;101544.34;4924969;28;97331;-70
2023/06/03 09:17:52;;;;;;;1.00;0.43;;;19.10;98.50;;;18.87;44.58;101548.31;4925986;28;99135;-70
2023/06/03 09:20:18;;;;;;;0.87;0.50;;;19.10;98.80;;;18.91;45.15;101555.19;4922968;28;96733;-70
2023/06/03 09:22:47;;;;;;;1.80;0.70;;;19.20;98.90;;;18.95;44.22;101551.41;4922305;28;97583;-70
2023/06/03 09:25:14;;;;;;;1.47;0.60;;;19.20;98.60;;;18.97;45.45;101546.84;4927700;28;97641;-70
2023/06/03 09:27:40;;;;;;;2.80;0.70;;;19.20;99.00;;;18.90;44.35;101548.13;4931884;28;97393;-70
2023/06/03 09:30:08;;;;;;;1.60;0.70;;;19.20;98.70;;;19.03;43.38;101549.16;4932115;28;97651;-70
2023/06/03 09:32:36;;;;;;;1.47;0.83;;;19.30;97.50;;;18.84;44.38;101553.84;4921386;28;96833;-70
2023/06/03 09:35:06;;;;;;;2.40;0.53;;;19.10;98.00;;;18.78;44.79;101546.13;4921312;28;97062;-70
2023/06/03 09:37:32;;;;;;;1.00;0.43;;;19.00;98.60;;;18.89;44.39;101551.75;4926122;28;97455;-70
2023/06/03 09:39:59;;;;;;;0.83;0.43;;;19.10;98.50;;;18.98;44.31;101546.75;4911355;28;98017;-70
2023/06/03 09:42:45;;;;;;;1.47;0.50;;;19.20;98.50;;;18.92;45.47;101548.91;4901664;28;96893;-70
2023/06/03 09:45:33;;;;;;;2.40;0.83;;;19.20;99.10;;;18.94;45.06;101544.31;4901596;28;97692;-70
2023/06/03 09:48:02;;;;;;;2.47;0.60;;;19.20;98.90;;;19.09;43.34;101540.78;4897496;28;99178;-70
2023/06/03 09:50:30;;;;;;;2.17;1.00;;;19.30;97.60;;;18.92;45.18;101548.91;4902212;28;97665;-70
2023/06/03 09:52:57;;;;;;;0.57;0.40;;;19.20;98.90;;;18.88;45.01;101547.38;4896793;28;96877;-70
2023/06/03 09:55:32;;;;;;;2.83;0.70;;;19.20;98.60;;;19.05;43.79;101555.28;4905327;28;97459;-70
2023/06/03 09:58:08;;;;;;;0.93;0.50;;;19.30;98.00;;;18.90;45.13;101558.81;4902376;28;97974;-70
2023/06/03 10:00:48;;;;;;;1.70;0.67;;;19.20;99.00;;;18.88;45.08;101550.03;4902791;28;97496;-70
2023/06/03 10:03:15;;;;;;;2.27;0.80;;;19.10;98.70;;;18.90;44.37;101548.13;4905240;28;97820;-70
2023/06/03 10:05:41;;;;;;;1.10;0.60;;;19.20;98.60;;;18.88;45.09;101542.88;4900527;28;98321;-70
2023/06/03 10:08:07;;;;;;;1.20;0.57;;;19.20;98.60;;;18.95;45.21;101546.06;4900250;28;97445;-70
2023/06/03 10:10:34;;;;;;;1.10;0.60;;;19.20;98.80;;;19.05;44.04;101541.91;4902482;28;97400;-70
2023/06/03 10:13:23;;;;;;;2.10;0.70;;;19.30;98.10;;;19.05;44.30;101546.41;4900332;28;97651;-70
2023/06/03 10:15:52;;;;;;;2.43;0.90;;;19.30;98.60;;;19.09;45.04;101534.56;4926653;28;99291;-70
2023/06/03 10:18:34;;;;;;;2.10;0.53;;;19.30;98.50;;;19.09;44.74;101538.09;4896702;28;97334;-70
2023/06/03 10:21:11;;;;;;;0.73;0.63;;;19.30;98.60;;;18.97;45.37;101534.34;4901291;28;97511;-71
2023/06/03 10:23:41;;;;;;;1.60;0.80;;;19.30;98.80;;;18.96;44.97;101540.66;4902083;28;97262;-70